Friday, December 14, 2018, 7:58 PM EST
Back to Local

KWRI, Mcguire Air Force Base

Location: Trenton, NJ, United States Lat: 40.017
Local Time: 7:58 PM EST ( 0:58 GMT) Lon: -74.6
Time Zone: US/Eastern Elev: 134 ft

Show me the last for .
Show Decoded

2018-12-14 18:56 METAR KWRI 142356Z 00000KT 10SM BKN090 08/08 A3030 RMK AO2A SLP261 60000
                 T00780075 10117 20078 57003 RVRNO $ =
2018-12-14 17:56 METAR KWRI 142256Z 00000KT 10SM BKN120 09/08 A3031 RMK AO2A RAB16E29DZB29E33
                 SLP265 P0000 T00900081 RVRNO $ =
2018-12-14 17:33 METAR KWRI 142233Z 11003KT 10SM SCT090 BKN130 09/08 A3031 RMK AO2A
                 RAB16E29DZB29E33 SLP265 RVRNO $ =
2018-12-14 17:16 METAR KWRI 142216Z 10003KT 10SM -RA SCT080 BKN130 10/08 A3031 RMK AO2A RAB16
                 SLP264 RVRNO $ =
2018-12-14 16:56 METAR KWRI 142156Z COR 11003KT SCT080 BKN140 10/08 A3031 RMK AO2A SLP264
                 T00960080 RVRNO $ COR 2201 =
2018-12-14 15:56 METAR KWRI 142056Z 12005KT 10SM FEW075 BKN140 10/08 A3031 RMK AO2A SLP264
                 T01030081 58008 RVRNO $ =
2018-12-14 14:56 METAR KWRI 141956Z 13005KT 10SM SCT038 OVC070 11/08 A3032 RMK AO2A SLP268
                 T01100080 RVRNO $ =
2018-12-14 14:16 METAR KWRI 141916Z 16005KT 10SM SCT016 OVC036 11/08 A3033 RMK AO2A SLP271 RVRNO
                 $ =
2018-12-14 13:56 METAR KWRI 141856Z 15005KT 10SM OVC016 11/08 A3033 RMK AO2A SLP271 T01120079
                 RVRNO $ =
2018-12-14 12:56 METAR KWRI 141756Z 14005KT 10SM OVC016 12/08 A3034 RMK AO2A OVC V BKN SLP275
                 T01150076 10115 20019 56031 RVRNO $ =
2018-12-14 12:21 METAR KWRI 141721Z 14007KT 10SM OVC015 11/08 A3034 RMK AO2A SLP275 RVRNO $ =
2018-12-14 11:56 METAR KWRI 141656Z 13008KT 10SM OVC014 11/08 A3034 RMK AO2A SLP275 T01080077
                 RVRNO $ =
2018-12-14 11:21 METAR KWRI 141621Z 10005KT 10SM BKN015 OVC170 10/08 A3037 RMK AO2A CIG 013 RWY18
                 CIG 013 RWY24 SLP285 RVRNO $ =
2018-12-14 10:56 METAR KWRI 141556Z 11003KT 10SM OVC013 09/08 A3039 RMK AO2A CIG 012 RWY24 SLP292
                 T00940077 RVRNO $ =
2018-12-14 10:46 METAR KWRI 141546Z 09004KT 10SM OVC014 09/08 A3040 RMK AO2A CIG 013 RWY18 SLP295
                 RVRNO $ =
2018-12-14 10:31 METAR KWRI 141531Z 08003KT 10SM BKN015 BKN022 09/07 A3041 RMK AO2A CIG 015V200
                 BKN015 V FEW SLP298 RVRNO $ =
2018-12-14 10:06 METAR KWRI 141506Z 07004KT 10SM SCT027 08/07 A3042 RMK AO2A SLP302 RVRNO $ =
2018-12-14 09:56 METAR KWRI 141456Z 08003KT 10SM BKN025 08/07 A3043 RMK AO2A CIG 023 RWY24 SLP305
                 T00760068 50006 RVRNO $ =
2018-12-14 08:56 METAR KWRI 141356Z 00000KT 10SM FEW016 BKN023 06/06 A3044 RMK AO2A BKN V SCT
                 SLP309 T00590058 RVRNO $ =
2018-12-14 08:46 METAR KWRI 141346Z COR 00000KT 10SM SCT016 06/05 A3044 RMK AO2A SLP309 RVRNO $
                 COR 1359 =
2018-12-14 08:41 METAR KWRI 141341Z 00000KT 6SM BR BKN015 05/05 A3044 RMK AO2A CIG 015V025 BKN V
                 SCT SLP309 RVRNO $ =
2018-12-14 08:36 METAR KWRI 141336Z 00000KT 6SM BR SCT015 05/05 A3044 RMK AO2A SLP309 RVRNO $ =
2018-12-14 08:21 METAR KWRI 141321Z 00000KT 6SM BR SCT017 BKN027 05/05 A3043 RMK AO2A CIG 016V027
                 BKN V OVC CIG 023 RWY24 SLP305 RVRNO $ =
2018-12-14 07:56 METAR KWRI 141256Z 00000KT 5SM BR FEW015 OVC027 04/04 A3043 RMK AO2A SLP306
                 T00390038 RVRNO $ =
2018-12-14 06:56 METAR KWRI 141156Z 04004KT 3SM BR OVC024 02/02 A3041 RMK AO2A VIS 2 1/2 RWY06/24
                 SLP299 T00180017 10026 20005 53002 RVRNO $ =
2018-12-14 06:51 METAR KWRI 141151Z 04004KT 3SM BR OVC024 02/02 A3041 RMK AO2A VIS 2 RWY06/24
                 SLP299 RVRNO $ =
2018-12-14 06:16 METAR KWRI 141116Z 04003KT 2SM BR OVC023 02/01 A3040 RMK AO2A VIS 1 RWY06/24 VIS
                 2 1/2 RWY18 VIS 5/8 RWY36 SLP295 RVRNO $ =
2018-12-14 05:56 METAR KWRI 141056Z 00000KT 1SM BR BKN023 BKN070 01/01 A3040 RMK AO2A VIS 1/4
                 RWY06/24 VIS 1 RWY18 VIS 3/8 RWY24 VIS 1/4 RWY36 CIG 023V029 BKN023 V SCT SLP295
                 T00100009 RVRNO $ =
2018-12-14 05:41 METAR KWRI 141041Z 00000KT 1SM BR FEW021 BKN029 BKN070 01/01 A3040 RMK AO2A VIS
                 1/8 RWY06/24 VIS 1/4 RWY18 VIS 1/8 RWY24 VIS 1/8 RWY36 SLP295 RVRNO $ =
2018-12-14 05:23 METAR KWRI 141023Z 36003KT 1SM BR BKN030 02/02 A3040 RMK VIS 1/8 RWY06/24 VIS
                 1/2 RWY18 VIS 1/8 RWY24 VIS 1/4 RWY36 SLP295 RVRNO $ =
2018-12-14 04:56 METAR KWRI 140956Z 00000KT 3SM BR CLR 01/01 A3039 RMK AO2A VIS 1/8 RWY06/24 VIS
                 2 3/4 RWY18 VIS 2 1/4 RWY24 VIS 5/8 RWY36 SLP292 T00130012 RVRNO $ =
2018-12-14 03:56 METAR KWRI 140856Z 33003KT 4SM BR OVC065 02/01 A3041 RMK AO2A VIS 5/8 RWY06/24
                 VIS 1 3/8 RWY24 VIS 3/4 RWY36 SLP298 T00160013 58002 RVRNO $ =
2018-12-14 03:21 METAR KWRI 140821Z 04004KT 4SM BR SCT024 BKN070 01/01 A3041 RMK AO2A VIS 1 5/8
                 RWY06/24 VIS 1 1/2 RWY24 VIS 1/2 RWY36 SLP298 RVRNO $ =
2018-12-14 02:56 METAR KWRI 140756Z 00000KT 4SM BR BKN025 BKN070 02/01 A3042 RMK AO2A VIS 1 7/8
                 RWY06/24 VIS 2 3/4 RWY18 VIS 1 5/8 RWY24 VIS 1 3/4 RWY36 CIG 025V070 CIG 022
                 RWY18 SLP302 T00160013 RVRNO $ =
2018-12-14 02:46 METAR KWRI 140746Z 03004KT 5SM BR SCT022 BKN070 02/02 A3042 RMK AO2A VIS 2
                 RWY06/24 VIS 1 7/8 RWY36 SLP302 RVRNO $ =
2018-12-14 02:31 METAR KWRI 140731Z 35003KT 5SM BR BKN022 BKN070 03/02 A3042 RMK AO2A VIS 2 3/4
                 RWY06/24 CIG 019V024 CIG 020 RWY18 SLP302 RVRNO $ =
2018-12-14 02:06 METAR KWRI 140706Z 02003KT 5SM BR OVC016 03/02 A3041 RMK AO2A SLP298 RVRNO $ =
2018-12-14 01:56 METAR KWRI 140656Z 00000KT 5SM BR OVC014 02/02 A3041 RMK AO2A SLP298 T00190016
                 RVRNO $ =
2018-12-14 00:56 METAR KWRI 140556Z 05003KT 5SM BR BKN013 OVC075 01/01 A3041 RMK AO2A SLP298
                 T00090006 10027 21005 58002 RVRNO $ =
2018-12-14 00:11 METAR KWRI 140511Z 35005KT 5SM BR BKN013 BKN070 01/00 A3041 RMK AO2A VIS 1
                 RWY06/24 VIS 2 1/2 RWY36 CIG 013V070 BKN013 V SCT SLP298 RVRNO $ =
2018-12-13 23:56 METAR KWRI 140456Z 33004KT 5SM BR SCT013 00/00 A3042 RMK AO2A VIS 1/4 RWY06/24
                 VIS 2 1/2 RWY18 VIS 1 3/8 RWY36 SLP302 T00040001 400961014 RVRNO $ =
2018-12-13 22:56 METAR KWRI 140356Z 00000KT 10SM FEW014 00/00 A3042 RMK AO2A VIS 2 3/4 RWY06/24
                 VIS 2 3/4 RWY36 SLP302 T00011003 RVRNO $ =
2018-12-13 21:56 METAR KWRI 140256Z 02003KT 10SM FEW013 00/M01 A3042 RMK AO2A SLP302 T00001006
                 51009 RVRNO $ =
2018-12-13 20:56 METAR KWRI 140156Z 01003KT 10SM FEW030 01/00 A3041 RMK AO2A SLP299 T00061004
                 RVRNO $ =
2018-12-13 20:41 METAR KWRI 140141Z 01005KT 10SM SCT030 BKN037 01/00 A3041 RMK AO2A SLP299 RVRNO
                 $ =
2018-12-13 20:31 METAR KWRI 140131Z 01005KT 10SM BKN029 01/00 A3041 RMK AO2A BKN V SCT SLP299
                 RVRNO $ =

Support USWX by starting your Amazon purchase here.